sensor_id;sensor_type;location;lat;lon;timestamp;P1;durP1;ratioP1;P2;durP2;ratioP2
53650;SDS011;39552;45.776;15.892;2023-01-23T00:01:54;23.02;;;14.00;;
53650;SDS011;39552;45.776;15.892;2023-01-23T00:04:20;22.17;;;14.35;;
53650;SDS011;39552;45.776;15.892;2023-01-23T00:06:47;22.27;;;14.32;;
53650;SDS011;39552;45.776;15.892;2023-01-23T00:09:15;23.83;;;14.57;;
53650;SDS011;39552;45.776;15.892;2023-01-23T00:11:41;23.23;;;13.65;;
53650;SDS011;39552;45.776;15.892;2023-01-23T00:14:11;22.08;;;14.10;;
53650;SDS011;39552;45.776;15.892;2023-01-23T00:16:37;20.95;;;13.32;;
53650;SDS011;39552;45.776;15.892;2023-01-23T00:19:03;22.40;;;13.23;;
53650;SDS011;39552;45.776;15.892;2023-01-23T00:21:30;20.08;;;12.45;;
53650;SDS011;39552;45.776;15.892;2023-01-23T00:23:57;19.98;;;13.23;;
53650;SDS011;39552;45.776;15.892;2023-01-23T00:26:26;20.55;;;12.30;;
53650;SDS011;39552;45.776;15.892;2023-01-23T00:28:53;19.35;;;13.10;;
53650;SDS011;39552;45.776;15.892;2023-01-23T00:31:20;17.38;;;11.82;;
53650;SDS011;39552;45.776;15.892;2023-01-23T00:33:47;17.92;;;11.77;;
53650;SDS011;39552;45.776;15.892;2023-01-23T00:36:14;15.93;;;11.27;;
53650;SDS011;39552;45.776;15.892;2023-01-23T00:38:40;17.52;;;10.38;;
53650;SDS011;39552;45.776;15.892;2023-01-23T00:41:07;15.45;;;10.48;;
53650;SDS011;39552;45.776;15.892;2023-01-23T00:43:35;16.13;;;10.82;;
53650;SDS011;39552;45.776;15.892;2023-01-23T00:46:01;15.85;;;10.75;;
53650;SDS011;39552;45.776;15.892;2023-01-23T00:48:28;16.92;;;9.70;;
53650;SDS011;39552;45.776;15.892;2023-01-23T00:50:57;15.32;;;9.63;;
53650;SDS011;39552;45.776;15.892;2023-01-23T00:53:23;15.67;;;10.37;;
53650;SDS011;39552;45.776;15.892;2023-01-23T00:55:50;14.27;;;10.45;;
53650;SDS011;39552;45.776;15.892;2023-01-23T00:58:16;18.38;;;11.85;;
53650;SDS011;39552;45.776;15.892;2023-01-23T01:00:44;18.50;;;11.90;;
53650;SDS011;39552;45.776;15.892;2023-01-23T01:03:11;18.50;;;11.98;;
53650;SDS011;39552;45.776;15.892;2023-01-23T01:05:37;19.27;;;12.05;;
53650;SDS011;39552;45.776;15.892;2023-01-23T01:08:04;17.27;;;11.15;;
53650;SDS011;39552;45.776;15.892;2023-01-23T01:10:31;18.70;;;12.00;;
53650;SDS011;39552;45.776;15.892;2023-01-23T01:12:58;15.50;;;11.70;;
53650;SDS011;39552;45.776;15.892;2023-01-23T01:15:25;17.00;;;12.18;;
53650;SDS011;39552;45.776;15.892;2023-01-23T01:17:53;20.65;;;11.88;;
53650;SDS011;39552;45.776;15.892;2023-01-23T01:20:20;16.85;;;10.95;;
53650;SDS011;39552;45.776;15.892;2023-01-23T01:22:47;16.13;;;10.48;;
53650;SDS011;39552;45.776;15.892;2023-01-23T01:25:13;16.35;;;10.48;;
53650;SDS011;39552;45.776;15.892;2023-01-23T01:27:40;14.00;;;9.05;;
53650;SDS011;39552;45.776;15.892;2023-01-23T01:30:07;11.52;;;8.40;;
53650;SDS011;39552;45.776;15.892;2023-01-23T01:32:35;9.65;;;7.18;;
53650;SDS011;39552;45.776;15.892;2023-01-23T01:35:03;9.80;;;6.72;;
53650;SDS011;39552;45.776;15.892;2023-01-23T01:37:31;9.02;;;6.15;;
53650;SDS011;39552;45.776;15.892;2023-01-23T01:39:58;10.23;;;6.80;;
53650;SDS011;39552;45.776;15.892;2023-01-23T01:42:24;8.20;;;6.18;;
53650;SDS011;39552;45.776;15.892;2023-01-23T01:44:52;7.50;;;6.20;;
53650;SDS011;39552;45.776;15.892;2023-01-23T01:47:18;7.38;;;5.93;;
53650;SDS011;39552;45.776;15.892;2023-01-23T01:49:45;8.20;;;5.97;;
53650;SDS011;39552;45.776;15.892;2023-01-23T01:52:13;6.78;;;5.50;;
53650;SDS011;39552;45.776;15.892;2023-01-23T01:54:40;7.93;;;6.43;;
53650;SDS011;39552;45.776;15.892;2023-01-23T01:57:09;7.82;;;6.22;;
53650;SDS011;39552;45.776;15.892;2023-01-23T01:59:37;11.68;;;8.25;;
53650;SDS011;39552;45.776;15.892;2023-01-23T02:02:06;8.38;;;6.90;;
53650;SDS011;39552;45.776;15.892;2023-01-23T02:04:35;8.25;;;6.30;;
53650;SDS011;39552;45.776;15.892;2023-01-23T02:07:02;7.32;;;6.25;;
53650;SDS011;39552;45.776;15.892;2023-01-23T02:09:32;10.07;;;6.85;;
53650;SDS011;39552;45.776;15.892;2023-01-23T02:11:58;10.07;;;7.00;;
53650;SDS011;39552;45.776;15.892;2023-01-23T02:14:25;10.68;;;7.38;;
53650;SDS011;39552;45.776;15.892;2023-01-23T02:16:51;8.00;;;6.40;;
53650;SDS011;39552;45.776;15.892;2023-01-23T02:22:03;6.70;;;5.68;;
53650;SDS011;39552;45.776;15.892;2023-01-23T02:24:35;7.00;;;5.95;;
53650;SDS011;39552;45.776;15.892;2023-01-23T02:27:05;6.18;;;5.38;;
53650;SDS011;39552;45.776;15.892;2023-01-23T02:29:38;6.78;;;5.85;;
53650;SDS011;39552;45.776;15.892;2023-01-23T02:32:05;7.13;;;5.47;;
53650;SDS011;39552;45.776;15.892;2023-01-23T02:34:32;6.93;;;6.15;;
53650;SDS011;39552;45.776;15.892;2023-01-23T02:36:58;7.32;;;6.13;;
53650;SDS011;39552;45.776;15.892;2023-01-23T02:39:25;3.40;;;3.10;;
53650;SDS011;39552;45.776;15.892;2023-01-23T02:41:51;4.97;;;3.53;;
53650;SDS011;39552;45.776;15.892;2023-01-23T02:44:21;3.10;;;2.83;;
53650;SDS011;39552;45.776;15.892;2023-01-23T02:46:48;2.35;;;2.22;;
53650;SDS011;39552;45.776;15.892;2023-01-23T02:49:14;2.95;;;2.75;;
53650;SDS011;39552;45.776;15.892;2023-01-23T02:51:41;3.65;;;2.47;;
53650;SDS011;39552;45.776;15.892;2023-01-23T02:54:07;2.65;;;2.40;;
53650;SDS011;39552;45.776;15.892;2023-01-23T02:56:34;2.90;;;2.70;;
53650;SDS011;39552;45.776;15.892;2023-01-23T02:59:00;2.80;;;2.60;;
53650;SDS011;39552;45.776;15.892;2023-01-23T03:01:28;3.00;;;2.80;;
53650;SDS011;39552;45.776;15.892;2023-01-23T03:03:55;7.60;;;5.07;;
53650;SDS011;39552;45.776;15.892;2023-01-23T03:06:21;10.00;;;6.03;;
53650;SDS011;39552;45.776;15.892;2023-01-23T03:08:48;10.00;;;5.90;;
53650;SDS011;39552;45.776;15.892;2023-01-23T03:11:16;9.65;;;6.15;;
53650;SDS011;39552;45.776;15.892;2023-01-23T03:13:43;7.40;;;5.85;;
53650;SDS011;39552;45.776;15.892;2023-01-23T03:16:10;6.72;;;4.72;;
53650;SDS011;39552;45.776;15.892;2023-01-23T03:18:38;4.68;;;4.28;;
53650;SDS011;39552;45.776;15.892;2023-01-23T03:21:19;4.88;;;4.40;;
53650;SDS011;39552;45.776;15.892;2023-01-23T03:23:46;6.55;;;4.53;;
53650;SDS011;39552;45.776;15.892;2023-01-23T03:26:12;5.97;;;4.93;;
53650;SDS011;39552;45.776;15.892;2023-01-23T03:28:39;4.50;;;4.10;;
53650;SDS011;39552;45.776;15.892;2023-01-23T03:31:06;7.43;;;4.50;;
53650;SDS011;39552;45.776;15.892;2023-01-23T03:33:32;5.63;;;4.30;;
53650;SDS011;39552;45.776;15.892;2023-01-23T03:36:00;5.15;;;4.50;;
53650;SDS011;39552;45.776;15.892;2023-01-23T03:38:27;4.78;;;4.15;;
53650;SDS011;39552;45.776;15.892;2023-01-23T03:40:53;4.55;;;3.65;;
53650;SDS011;39552;45.776;15.892;2023-01-23T03:43:19;4.22;;;3.80;;
53650;SDS011;39552;45.776;15.892;2023-01-23T03:45:46;4.28;;;3.63;;
53650;SDS011;39552;45.776;15.892;2023-01-23T03:48:13;4.97;;;3.70;;
53650;SDS011;39552;45.776;15.892;2023-01-23T03:50:39;4.68;;;3.97;;
53650;SDS011;39552;45.776;15.892;2023-01-23T03:53:09;4.05;;;3.65;;
53650;SDS011;39552;45.776;15.892;2023-01-23T03:55:35;4.00;;;3.60;;
53650;SDS011;39552;45.776;15.892;2023-01-23T03:58:01;3.40;;;3.03;;
53650;SDS011;39552;45.776;15.892;2023-01-23T04:00:28;5.35;;;4.00;;
53650;SDS011;39552;45.776;15.892;2023-01-23T04:02:55;3.95;;;3.47;;
53650;SDS011;39552;45.776;15.892;2023-01-23T04:05:21;5.07;;;3.90;;
53650;SDS011;39552;45.776;15.892;2023-01-23T04:07:48;6.78;;;3.35;;
53650;SDS011;39552;45.776;15.892;2023-01-23T04:10:16;3.67;;;3.25;;
53650;SDS011;39552;45.776;15.892;2023-01-23T04:12:42;4.15;;;2.70;;
53650;SDS011;39552;45.776;15.892;2023-01-23T04:15:09;4.30;;;2.65;;
53650;SDS011;39552;45.776;15.892;2023-01-23T04:17:36;2.70;;;2.47;;
53650;SDS011;39552;45.776;15.892;2023-01-23T04:20:05;3.42;;;2.53;;
53650;SDS011;39552;45.776;15.892;2023-01-23T04:22:31;3.08;;;2.47;;
53650;SDS011;39552;45.776;15.892;2023-01-23T04:24:58;3.22;;;2.47;;
53650;SDS011;39552;45.776;15.892;2023-01-23T04:27:26;3.15;;;2.85;;
53650;SDS011;39552;45.776;15.892;2023-01-23T04:29:56;3.00;;;2.80;;
53650;SDS011;39552;45.776;15.892;2023-01-23T04:32:22;2.95;;;2.63;;
53650;SDS011;39552;45.776;15.892;2023-01-23T04:34:49;3.40;;;3.10;;
53650;SDS011;39552;45.776;15.892;2023-01-23T04:37:15;3.65;;;3.00;;
53650;SDS011;39552;45.776;15.892;2023-01-23T04:39:42;4.13;;;3.72;;
53650;SDS011;39552;45.776;15.892;2023-01-23T04:42:09;4.25;;;3.78;;
53650;SDS011;39552;45.776;15.892;2023-01-23T04:44:36;3.90;;;3.45;;
53650;SDS011;39552;45.776;15.892;2023-01-23T04:47:03;5.63;;;3.13;;
53650;SDS011;39552;45.776;15.892;2023-01-23T04:49:30;5.45;;;3.80;;
53650;SDS011;39552;45.776;15.892;2023-01-23T04:51:56;4.80;;;4.32;;
53650;SDS011;39552;45.776;15.892;2023-01-23T04:54:23;4.70;;;4.00;;
53650;SDS011;39552;45.776;15.892;2023-01-23T04:56:49;5.05;;;4.40;;
53650;SDS011;39552;45.776;15.892;2023-01-23T04:59:16;4.78;;;4.10;;
53650;SDS011;39552;45.776;15.892;2023-01-23T05:01:43;5.57;;;4.25;;
53650;SDS011;39552;45.776;15.892;2023-01-23T05:04:10;5.13;;;4.43;;
53650;SDS011;39552;45.776;15.892;2023-01-23T05:06:36;6.25;;;4.55;;
53650;SDS011;39552;45.776;15.892;2023-01-23T05:09:03;4.95;;;4.45;;
53650;SDS011;39552;45.776;15.892;2023-01-23T05:11:30;6.72;;;4.40;;
53650;SDS011;39552;45.776;15.892;2023-01-23T05:13:56;4.80;;;4.07;;
53650;SDS011;39552;45.776;15.892;2023-01-23T05:16:22;5.18;;;4.68;;
53650;SDS011;39552;45.776;15.892;2023-01-23T05:18:50;5.10;;;4.45;;
53650;SDS011;39552;45.776;15.892;2023-01-23T05:21:17;5.03;;;4.53;;
53650;SDS011;39552;45.776;15.892;2023-01-23T05:23:43;6.75;;;4.97;;
53650;SDS011;39552;45.776;15.892;2023-01-23T05:26:10;4.70;;;4.20;;
53650;SDS011;39552;45.776;15.892;2023-01-23T05:28:36;5.10;;;4.60;;
53650;SDS011;39552;45.776;15.892;2023-01-23T05:31:03;6.45;;;5.22;;
53650;SDS011;39552;45.776;15.892;2023-01-23T05:33:30;5.32;;;4.82;;
53650;SDS011;39552;45.776;15.892;2023-01-23T05:35:59;6.75;;;4.75;;
53650;SDS011;39552;45.776;15.892;2023-01-23T05:38:25;6.07;;;4.68;;
53650;SDS011;39552;45.776;15.892;2023-01-23T05:40:52;6.55;;;5.05;;
53650;SDS011;39552;45.776;15.892;2023-01-23T05:43:18;5.55;;;4.85;;
53650;SDS011;39552;45.776;15.892;2023-01-23T05:45:45;11.43;;;5.97;;
53650;SDS011;39552;45.776;15.892;2023-01-23T05:48:11;7.03;;;5.57;;
53650;SDS011;39552;45.776;15.892;2023-01-23T05:50:38;7.65;;;5.53;;
53650;SDS011;39552;45.776;15.892;2023-01-23T05:53:06;6.82;;;5.72;;
53650;SDS011;39552;45.776;15.892;2023-01-23T05:55:33;6.38;;;5.78;;
53650;SDS011;39552;45.776;15.892;2023-01-23T05:57:59;7.32;;;5.63;;
53650;SDS011;39552;45.776;15.892;2023-01-23T06:00:26;7.65;;;6.13;;
53650;SDS011;39552;45.776;15.892;2023-01-23T06:02:52;7.97;;;6.80;;
53650;SDS011;39552;45.776;15.892;2023-01-23T06:05:19;11.07;;;7.00;;
53650;SDS011;39552;45.776;15.892;2023-01-23T06:07:46;7.95;;;6.80;;
53650;SDS011;39552;45.776;15.892;2023-01-23T06:12:41;8.30;;;6.88;;
53650;SDS011;39552;45.776;15.892;2023-01-23T06:15:08;9.32;;;6.72;;
53650;SDS011;39552;45.776;15.892;2023-01-23T06:17:35;8.50;;;7.60;;
53650;SDS011;39552;45.776;15.892;2023-01-23T06:20:02;9.43;;;6.68;;
53650;SDS011;39552;45.776;15.892;2023-01-23T06:22:29;9.32;;;6.95;;
53650;SDS011;39552;45.776;15.892;2023-01-23T06:24:56;8.75;;;7.32;;
53650;SDS011;39552;45.776;15.892;2023-01-23T06:27:23;9.13;;;7.53;;
53650;SDS011;39552;45.776;15.892;2023-01-23T06:29:51;12.23;;;7.93;;
53650;SDS011;39552;45.776;15.892;2023-01-23T06:32:18;10.35;;;7.63;;
53650;SDS011;39552;45.776;15.892;2023-01-23T06:34:44;10.70;;;8.15;;
53650;SDS011;39552;45.776;15.892;2023-01-23T06:37:11;10.75;;;8.80;;
53650;SDS011;39552;45.776;15.892;2023-01-23T06:39:37;11.77;;;8.75;;
53650;SDS011;39552;45.776;15.892;2023-01-23T06:42:04;11.43;;;9.15;;
53650;SDS011;39552;45.776;15.892;2023-01-23T06:44:30;12.27;;;8.93;;
53650;SDS011;39552;45.776;15.892;2023-01-23T06:46:58;9.57;;;7.88;;
53650;SDS011;39552;45.776;15.892;2023-01-23T06:49:25;11.88;;;9.20;;
53650;SDS011;39552;45.776;15.892;2023-01-23T06:51:51;11.07;;;8.25;;
53650;SDS011;39552;45.776;15.892;2023-01-23T06:54:18;11.57;;;8.63;;
53650;SDS011;39552;45.776;15.892;2023-01-23T06:56:44;10.88;;;8.55;;
53650;SDS011;39552;45.776;15.892;2023-01-23T06:59:11;11.60;;;9.07;;
53650;SDS011;39552;45.776;15.892;2023-01-23T07:01:38;11.30;;;8.70;;
53650;SDS011;39552;45.776;15.892;2023-01-23T07:04:06;12.48;;;8.25;;
53650;SDS011;39552;45.776;15.892;2023-01-23T07:06:32;11.63;;;8.73;;
53650;SDS011;39552;45.776;15.892;2023-01-23T07:08:59;9.65;;;8.40;;
53650;SDS011;39552;45.776;15.892;2023-01-23T07:11:25;10.73;;;8.02;;
53650;SDS011;39552;45.776;15.892;2023-01-23T07:13:52;13.27;;;8.40;;
53650;SDS011;39552;45.776;15.892;2023-01-23T07:16:19;8.93;;;7.47;;
53650;SDS011;39552;45.776;15.892;2023-01-23T07:18:45;10.15;;;7.88;;
53650;SDS011;39552;45.776;15.892;2023-01-23T07:21:13;10.90;;;7.25;;
53650;SDS011;39552;45.776;15.892;2023-01-23T07:23:40;10.02;;;7.40;;
53650;SDS011;39552;45.776;15.892;2023-01-23T07:26:06;9.00;;;7.75;;
53650;SDS011;39552;45.776;15.892;2023-01-23T07:28:33;8.35;;;6.72;;
53650;SDS011;39552;45.776;15.892;2023-01-23T07:30:59;7.80;;;6.85;;
53650;SDS011;39552;45.776;15.892;2023-01-23T07:33:26;7.65;;;6.80;;
53650;SDS011;39552;45.776;15.892;2023-01-23T07:35:53;9.15;;;6.95;;
53650;SDS011;39552;45.776;15.892;2023-01-23T07:38:21;7.82;;;6.43;;
53650;SDS011;39552;45.776;15.892;2023-01-23T07:40:47;8.38;;;6.85;;
53650;SDS011;39552;45.776;15.892;2023-01-23T07:43:14;9.20;;;6.97;;
53650;SDS011;39552;45.776;15.892;2023-01-23T07:45:41;8.63;;;6.88;;
53650;SDS011;39552;45.776;15.892;2023-01-23T07:48:07;10.60;;;7.50;;
53650;SDS011;39552;45.776;15.892;2023-01-23T07:50:34;9.00;;;7.63;;
53650;SDS011;39552;45.776;15.892;2023-01-23T07:53:00;8.43;;;6.80;;
53650;SDS011;39552;45.776;15.892;2023-01-23T07:55:29;9.02;;;6.95;;
53650;SDS011;39552;45.776;15.892;2023-01-23T07:57:55;8.85;;;7.07;;
53650;SDS011;39552;45.776;15.892;2023-01-23T08:00:22;7.80;;;6.57;;
53650;SDS011;39552;45.776;15.892;2023-01-23T08:02:52;8.30;;;7.50;;
53650;SDS011;39552;45.776;15.892;2023-01-23T08:05:18;7.72;;;6.93;;
53650;SDS011;39552;45.776;15.892;2023-01-23T08:07:46;8.13;;;6.80;;
53650;SDS011;39552;45.776;15.892;2023-01-23T08:10:13;9.95;;;7.53;;
53650;SDS011;39552;45.776;15.892;2023-01-23T08:12:40;9.20;;;7.30;;
53650;SDS011;39552;45.776;15.892;2023-01-23T08:15:07;8.25;;;6.93;;
53650;SDS011;39552;45.776;15.892;2023-01-23T08:17:34;7.97;;;6.65;;
53650;SDS011;39552;45.776;15.892;2023-01-23T08:20:01;8.45;;;6.57;;
53650;SDS011;39552;45.776;15.892;2023-01-23T08:22:28;8.82;;;6.68;;
53650;SDS011;39552;45.776;15.892;2023-01-23T08:24:54;8.80;;;7.28;;
53650;SDS011;39552;45.776;15.892;2023-01-23T08:27:21;8.10;;;7.15;;
53650;SDS011;39552;45.776;15.892;2023-01-23T08:29:49;8.48;;;7.30;;
53650;SDS011;39552;45.776;15.892;2023-01-23T08:32:15;6.80;;;6.13;;
53650;SDS011;39552;45.776;15.892;2023-01-23T08:34:42;7.47;;;6.45;;
53650;SDS011;39552;45.776;15.892;2023-01-23T08:37:09;7.25;;;6.47;;
53650;SDS011;39552;45.776;15.892;2023-01-23T08:39:35;7.95;;;6.53;;
53650;SDS011;39552;45.776;15.892;2023-01-23T08:42:02;8.73;;;6.40;;
53650;SDS011;39552;45.776;15.892;2023-01-23T08:44:28;7.28;;;6.25;;
53650;SDS011;39552;45.776;15.892;2023-01-23T08:46:56;7.50;;;6.78;;
53650;SDS011;39552;45.776;15.892;2023-01-23T08:49:23;7.35;;;6.65;;
53650;SDS011;39552;45.776;15.892;2023-01-23T08:51:50;9.00;;;6.25;;
53650;SDS011;39552;45.776;15.892;2023-01-23T08:54:17;7.85;;;7.05;;
53650;SDS011;39552;45.776;15.892;2023-01-23T08:56:44;11.02;;;6.95;;
53650;SDS011;39552;45.776;15.892;2023-01-23T08:59:11;7.78;;;6.15;;
53650;SDS011;39552;45.776;15.892;2023-01-23T09:01:41;6.85;;;6.03;;
53650;SDS011;39552;45.776;15.892;2023-01-23T09:04:09;8.13;;;6.45;;
53650;SDS011;39552;45.776;15.892;2023-01-23T09:06:36;10.57;;;7.97;;
53650;SDS011;39552;45.776;15.892;2023-01-23T09:09:02;10.32;;;7.15;;
53650;SDS011;39552;45.776;15.892;2023-01-23T09:11:29;9.30;;;6.38;;
53650;SDS011;39552;45.776;15.892;2023-01-23T09:13:55;7.15;;;6.25;;
53650;SDS011;39552;45.776;15.892;2023-01-23T09:16:22;7.25;;;6.47;;
53650;SDS011;39552;45.776;15.892;2023-01-23T09:18:50;8.20;;;7.07;;
53650;SDS011;39552;45.776;15.892;2023-01-23T09:21:21;11.05;;;7.35;;
53650;SDS011;39552;45.776;15.892;2023-01-23T09:23:47;8.30;;;6.53;;
53650;SDS011;39552;45.776;15.892;2023-01-23T09:26:22;6.85;;;5.97;;
53650;SDS011;39552;45.776;15.892;2023-01-23T09:28:49;6.13;;;5.55;;
53650;SDS011;39552;45.776;15.892;2023-01-23T09:31:15;6.82;;;5.45;;
53650;SDS011;39552;45.776;15.892;2023-01-23T09:33:48;7.90;;;6.60;;
53650;SDS011;39552;45.776;15.892;2023-01-23T09:36:15;5.60;;;5.10;;
53650;SDS011;39552;45.776;15.892;2023-01-23T09:38:51;7.80;;;5.72;;
53650;SDS011;39552;45.776;15.892;2023-01-23T09:41:18;6.40;;;5.70;;
53650;SDS011;39552;45.776;15.892;2023-01-23T09:43:48;5.78;;;5.07;;
53650;SDS011;39552;45.776;15.892;2023-01-23T09:46:19;5.70;;;4.97;;
53650;SDS011;39552;45.776;15.892;2023-01-23T09:48:51;7.30;;;5.90;;
53650;SDS011;39552;45.776;15.892;2023-01-23T09:51:20;6.20;;;5.60;;
53650;SDS011;39552;45.776;15.892;2023-01-23T09:53:50;5.60;;;5.07;;
53650;SDS011;39552;45.776;15.892;2023-01-23T09:56:27;6.07;;;5.32;;
53650;SDS011;39552;45.776;15.892;2023-01-23T09:58:57;5.82;;;5.32;;
53650;SDS011;39552;45.776;15.892;2023-01-23T10:01:25;6.57;;;5.90;;
53650;SDS011;39552;45.776;15.892;2023-01-23T10:03:52;7.57;;;6.00;;
53650;SDS011;39552;45.776;15.892;2023-01-23T10:06:20;6.00;;;5.50;;
53650;SDS011;39552;45.776;15.892;2023-01-23T10:08:55;6.47;;;5.82;;
53650;SDS011;39552;45.776;15.892;2023-01-23T10:11:27;5.35;;;4.68;;
53650;SDS011;39552;45.776;15.892;2023-01-23T10:13:59;5.32;;;4.82;;
53650;SDS011;39552;45.776;15.892;2023-01-23T10:16:34;5.03;;;4.57;;
53650;SDS011;39552;45.776;15.892;2023-01-23T10:19:18;5.40;;;4.90;;
53650;SDS011;39552;45.776;15.892;2023-01-23T10:21:49;5.85;;;4.47;;
53650;SDS011;39552;45.776;15.892;2023-01-23T10:24:23;7.55;;;4.65;;
53650;SDS011;39552;45.776;15.892;2023-01-23T10:27:10;5.47;;;4.43;;
53650;SDS011;39552;45.776;15.892;2023-01-23T10:29:40;4.50;;;4.10;;
53650;SDS011;39552;45.776;15.892;2023-01-23T10:32:14;4.82;;;4.22;;
53650;SDS011;39552;45.776;15.892;2023-01-23T10:34:44;5.22;;;4.28;;
53650;SDS011;39552;45.776;15.892;2023-01-23T10:37:14;4.85;;;4.45;;
53650;SDS011;39552;45.776;15.892;2023-01-23T10:39:46;4.53;;;4.13;;
53650;SDS011;39552;45.776;15.892;2023-01-23T10:42:14;4.70;;;4.30;;
53650;SDS011;39552;45.776;15.892;2023-01-23T10:44:42;4.28;;;3.90;;
53650;SDS011;39552;45.776;15.892;2023-01-23T10:47:12;7.10;;;4.20;;
53650;SDS011;39552;45.776;15.892;2023-01-23T10:49:42;4.90;;;4.50;;
53650;SDS011;39552;45.776;15.892;2023-01-23T10:52:23;4.90;;;4.10;;
53650;SDS011;39552;45.776;15.892;2023-01-23T10:54:54;4.43;;;3.92;;
53650;SDS011;39552;45.776;15.892;2023-01-23T10:57:22;4.40;;;4.10;;
53650;SDS011;39552;45.776;15.892;2023-01-23T10:59:51;4.55;;;4.05;;
53650;SDS011;39552;45.776;15.892;2023-01-23T11:04:46;4.25;;;3.70;;
53650;SDS011;39552;45.776;15.892;2023-01-23T11:07:14;4.30;;;3.88;;
53650;SDS011;39552;45.776;15.892;2023-01-23T11:09:49;4.65;;;4.22;;
53650;SDS011;39552;45.776;15.892;2023-01-23T11:12:18;4.43;;;4.03;;
53650;SDS011;39552;45.776;15.892;2023-01-23T11:17:14;3.63;;;3.40;;
53650;SDS011;39552;45.776;15.892;2023-01-23T11:19:41;4.20;;;3.80;;
53650;SDS011;39552;45.776;15.892;2023-01-23T11:22:21;5.45;;;3.88;;
53650;SDS011;39552;45.776;15.892;2023-01-23T11:24:49;3.65;;;3.35;;
53650;SDS011;39552;45.776;15.892;2023-01-23T11:27:24;3.90;;;3.60;;
53650;SDS011;39552;45.776;15.892;2023-01-23T11:32:32;6.00;;;3.63;;
53650;SDS011;39552;45.776;15.892;2023-01-23T11:35:10;3.50;;;3.30;;
53650;SDS011;39552;45.776;15.892;2023-01-23T11:37:37;4.30;;;3.88;;
53650;SDS011;39552;45.776;15.892;2023-01-23T11:40:09;3.75;;;3.45;;
53650;SDS011;39552;45.776;15.892;2023-01-23T11:42:39;4.30;;;3.90;;
53650;SDS011;39552;45.776;15.892;2023-01-23T11:45:11;4.15;;;3.65;;
53650;SDS011;39552;45.776;15.892;2023-01-23T11:47:41;5.57;;;3.95;;
53650;SDS011;39552;45.776;15.892;2023-01-23T11:50:23;3.63;;;3.33;;
53650;SDS011;39552;45.776;15.892;2023-01-23T11:53:01;4.57;;;4.15;;
53650;SDS011;39552;45.776;15.892;2023-01-23T11:58:11;3.90;;;3.60;;
53650;SDS011;39552;45.776;15.892;2023-01-23T12:00:57;4.05;;;3.65;;
53650;SDS011;39552;45.776;15.892;2023-01-23T12:03:38;4.00;;;3.70;;
53650;SDS011;39552;45.776;15.892;2023-01-23T12:06:22;4.13;;;3.80;;
53650;SDS011;39552;45.776;15.892;2023-01-23T12:09:04;4.45;;;4.05;;
53650;SDS011;39552;45.776;15.892;2023-01-23T12:11:44;4.53;;;4.13;;
53650;SDS011;39552;45.776;15.892;2023-01-23T12:14:23;4.18;;;3.88;;
53650;SDS011;39552;45.776;15.892;2023-01-23T12:22:20;3.97;;;3.67;;
53650;SDS011;39552;45.776;15.892;2023-01-23T12:24:54;4.10;;;3.80;;
53650;SDS011;39552;45.776;15.892;2023-01-23T12:27:26;4.20;;;3.90;;
53650;SDS011;39552;45.776;15.892;2023-01-23T12:32:57;3.97;;;3.58;;
53650;SDS011;39552;45.776;15.892;2023-01-23T12:35:32;4.60;;;4.22;;
53650;SDS011;39552;45.776;15.892;2023-01-23T12:38:08;5.32;;;4.50;;
53650;SDS011;39552;45.776;15.892;2023-01-23T12:40:36;4.68;;;4.28;;
53650;SDS011;39552;45.776;15.892;2023-01-23T12:45:31;3.85;;;3.58;;
53650;SDS011;39552;45.776;15.892;2023-01-23T12:48:01;6.88;;;4.30;;
53650;SDS011;39552;45.776;15.892;2023-01-23T12:50:34;4.15;;;3.80;;
53650;SDS011;39552;45.776;15.892;2023-01-23T12:53:16;4.00;;;3.70;;
53650;SDS011;39552;45.776;15.892;2023-01-23T12:58:25;4.20;;;3.90;;
53650;SDS011;39552;45.776;15.892;2023-01-23T13:01:13;4.50;;;4.05;;
53650;SDS011;39552;45.776;15.892;2023-01-23T13:04:10;4.88;;;4.07;;
53650;SDS011;39552;45.776;15.892;2023-01-23T13:07:09;4.25;;;3.95;;
53650;SDS011;39552;45.776;15.892;2023-01-23T13:10:01;4.28;;;3.88;;
53650;SDS011;39552;45.776;15.892;2023-01-23T13:12:35;5.05;;;3.65;;
53650;SDS011;39552;45.776;15.892;2023-01-23T13:15:19;4.10;;;3.80;;
53650;SDS011;39552;45.776;15.892;2023-01-23T13:18:14;4.03;;;3.63;;
53650;SDS011;39552;45.776;15.892;2023-01-23T13:20:53;4.00;;;3.70;;
53650;SDS011;39552;45.776;15.892;2023-01-23T13:29:09;3.95;;;3.65;;
53650;SDS011;39552;45.776;15.892;2023-01-23T13:31:55;4.45;;;4.05;;
53650;SDS011;39552;45.776;15.892;2023-01-23T13:35:29;5.57;;;3.83;;
53650;SDS011;39552;45.776;15.892;2023-01-23T13:37:52;4.28;;;3.88;;
53650;SDS011;39552;45.776;15.892;2023-01-23T13:40:26;4.43;;;4.03;;
53650;SDS011;39552;45.776;15.892;2023-01-23T13:43:18;5.00;;;3.72;;
53650;SDS011;39552;45.776;15.892;2023-01-23T13:45:55;3.83;;;3.53;;
53650;SDS011;39552;45.776;15.892;2023-01-23T13:48:30;4.55;;;4.20;;
53650;SDS011;39552;45.776;15.892;2023-01-23T13:51:17;4.00;;;3.70;;
53650;SDS011;39552;45.776;15.892;2023-01-23T14:22:04;5.75;;;3.95;;
53650;SDS011;39552;45.776;15.892;2023-01-23T14:25:11;4.45;;;4.05;;
53650;SDS011;39552;45.776;15.892;2023-01-23T14:28:11;4.68;;;3.75;;
53650;SDS011;39552;45.776;15.892;2023-01-23T14:32:21;4.45;;;4.10;;
53650;SDS011;39552;45.776;15.892;2023-01-23T15:38:31;5.47;;;4.65;;
53650;SDS011;39552;45.776;15.892;2023-01-23T15:41:25;6.03;;;4.10;;
53650;SDS011;39552;45.776;15.892;2023-01-23T15:44:44;4.18;;;3.78;;
53650;SDS011;39552;45.776;15.892;2023-01-23T15:50:33;5.05;;;4.57;;
53650;SDS011;39552;45.776;15.892;2023-01-23T15:53:23;4.75;;;4.20;;
53650;SDS011;39552;45.776;15.892;2023-01-23T23:08:15;4.40;;;4.10;;
53650;SDS011;39552;45.776;15.892;2023-01-23T23:10:42;4.75;;;4.35;;
53650;SDS011;39552;45.776;15.892;2023-01-23T23:13:09;4.50;;;4.20;;
53650;SDS011;39552;45.776;15.892;2023-01-23T23:15:36;4.97;;;4.50;;
53650;SDS011;39552;45.776;15.892;2023-01-23T23:18:03;4.47;;;4.03;;
53650;SDS011;39552;45.776;15.892;2023-01-23T23:20:29;4.55;;;4.15;;
53650;SDS011;39552;45.776;15.892;2023-01-23T23:22:57;4.13;;;3.83;;
53650;SDS011;39552;45.776;15.892;2023-01-23T23:25:25;4.63;;;4.28;;
53650;SDS011;39552;45.776;15.892;2023-01-23T23:27:52;4.68;;;4.28;;
53650;SDS011;39552;45.776;15.892;2023-01-23T23:30:19;4.85;;;4.43;;
53650;SDS011;39552;45.776;15.892;2023-01-23T23:32:46;4.53;;;4.15;;
53650;SDS011;39552;45.776;15.892;2023-01-23T23:35:13;5.10;;;4.60;;
53650;SDS011;39552;45.776;15.892;2023-01-23T23:37:40;4.63;;;4.22;;
53650;SDS011;39552;45.776;15.892;2023-01-23T23:40:07;4.72;;;4.32;;
53650;SDS011;39552;45.776;15.892;2023-01-23T23:42:36;4.90;;;4.28;;
53650;SDS011;39552;45.776;15.892;2023-01-23T23:45:03;5.43;;;4.93;;
53650;SDS011;39552;45.776;15.892;2023-01-23T23:47:31;4.97;;;4.53;;
53650;SDS011;39552;45.776;15.892;2023-01-23T23:49:58;4.88;;;4.47;;
53650;SDS011;39552;45.776;15.892;2023-01-23T23:52:25;4.93;;;4.53;;
53650;SDS011;39552;45.776;15.892;2023-01-23T23:54:51;4.40;;;4.00;;
53650;SDS011;39552;45.776;15.892;2023-01-23T23:57:18;4.85;;;4.45;;
53650;SDS011;39552;45.776;15.892;2023-01-23T23:59:46;4.78;;;4.28;;
